Time;durP1;ratioP1;P1;durP2;ratioP2;P2;SDS_P1;SDS_P2;PMS_P1;PMS_P2;Temp;Humidity;BMP_temperature;BMP_pressure;BME280_temperature;BME280_humidity;BME280_pressure;Samples;Min_cycle;Max_cycle;Signal;HPM_P1;HPM_P2
2022/04/13 00:01:14;;;;;;;9.48;2.25;;;;;;;;;;4968120;28;20057;-72
2022/04/13 00:03:42;;;;;;;13.70;2.65;;;;;;;;;;4970067;28;20468;-73
2022/04/13 00:06:09;;;;;;;11.27;2.08;;;;;;;;;;4971075;28;20035;-72
2022/04/13 00:08:35;;;;;;;8.50;2.00;;;;;;;;;;4957369;28;20029;-72
2022/04/13 00:11:02;;;;;;;15.40;2.85;;;;;;;;;;4968140;28;20034;-72
2022/04/13 00:13:28;;;;;;;12.43;1.90;;;;;;;;;;4968307;28;20049;-72
2022/04/13 00:15:55;;;;;;;10.45;2.10;;;;;;;;;;4967799;28;20038;-72
2022/04/13 00:18:21;;;;;;;12.18;2.15;;;;;;;;;;4972409;28;20019;-72
2022/04/13 00:20:48;;;;;;;11.50;1.90;;;;;;;;;;4968716;28;20031;-72
2022/04/13 00:23:14;;;;;;;10.48;2.47;;;;;;;;;;4968278;28;20019;-72
2022/04/13 00:25:41;;;;;;;8.60;1.90;;;;;;;;;;4968093;28;20022;-72
2022/04/13 00:28:10;;;;;;;14.68;2.25;;;;;;;;;;4968005;28;20117;-72
2022/04/13 00:30:37;;;;;;;8.60;2.10;;;;;;;;;;4970333;28;20042;-72
2022/04/13 00:33:03;;;;;;;11.07;1.98;;;;;;;;;;4970492;28;20034;-72
2022/04/13 00:35:29;;;;;;;9.95;2.00;;;;;;;;;;4968537;28;20026;-72
2022/04/13 00:37:57;;;;;;;8.95;1.95;;;;;;;;;;4967939;28;20029;-72
2022/04/13 00:40:24;;;;;;;12.30;2.20;;;;;;;;;;4967871;28;20038;-72
2022/04/13 00:42:50;;;;;;;11.25;2.30;;;;;;;;;;4968048;28;20385;-72
2022/04/13 00:45:17;;;;;;;11.23;2.60;;;;;;;;;;4974754;28;20023;-72
2022/04/13 00:47:44;;;;;;;13.30;2.17;;;;;;;;;;4972133;28;20027;-72
2022/04/13 00:50:11;;;;;;;12.52;2.58;;;;;;;;;;4971434;28;20039;-72
2022/04/13 00:52:39;;;;;;;12.80;2.65;;;;;;;;;;4971343;28;20403;-72
2022/04/13 00:55:08;;;;;;;16.55;2.90;;;;;;;;;;4971372;28;20023;-72
2022/04/13 00:57:36;;;;;;;10.27;2.22;;;;;;;;;;4973754;28;20030;-72
2022/04/13 01:00:04;;;;;;;14.27;2.22;;;;;;;;;;4973368;28;20035;-72
2022/04/13 01:02:32;;;;;;;19.75;2.40;;;;;;;;;;4971694;28;20023;-72
2022/04/13 01:05:00;;;;;;;12.45;3.33;;;;;;;;;;4971372;28;20402;-72
2022/04/13 01:07:27;;;;;;;14.32;2.70;;;;;;;;;;4971087;28;20027;-72
2022/04/13 01:09:54;;;;;;;14.65;3.00;;;;;;;;;;4971258;28;20035;-72
2022/04/13 01:12:20;;;;;;;17.48;2.83;;;;;;;;;;4975390;28;20027;-72
2022/04/13 01:14:47;;;;;;;8.25;1.75;;;;;;;;;;4971524;28;20037;-72
2022/04/13 01:17:13;;;;;;;12.88;2.25;;;;;;;;;;4971096;28;20021;-72
2022/04/13 01:19:40;;;;;;;10.52;3.05;;;;;;;;;;4957830;28;20027;-72
2022/04/13 01:22:19;;;;;;;9.93;2.45;;;;;;;;;;4970771;28;20045;-72
2022/04/13 01:24:46;;;;;;;12.50;2.15;;;;;;;;;;4972053;28;20025;-72
2022/04/13 01:27:14;;;;;;;13.55;2.20;;;;;;;;;;4973775;28;20037;-72
2022/04/13 01:29:44;;;;;;;10.65;2.17;;;;;;;;;;4971150;28;20047;-72
2022/04/13 01:32:13;;;;;;;14.43;2.58;;;;;;;;;;4970589;28;20081;-72
2022/04/13 01:34:50;;;;;;;7.82;2.08;;;;;;;;;;4970521;28;20019;-72
2022/04/13 01:37:16;;;;;;;12.68;2.50;;;;;;;;;;4970649;28;20027;-72
2022/04/13 01:39:43;;;;;;;10.35;2.40;;;;;;;;;;4972166;28;20035;-72
2022/04/13 01:42:10;;;;;;;10.52;2.42;;;;;;;;;;4972945;28;20035;-72
2022/04/13 01:44:36;;;;;;;10.48;2.50;;;;;;;;;;4971004;28;20103;-72
2022/04/13 01:47:03;;;;;;;12.90;2.50;;;;;;;;;;4970631;28;20035;-73
2022/04/13 01:49:29;;;;;;;10.90;2.40;;;;;;;;;;4970378;28;20599;-72
2022/04/13 01:51:55;;;;;;;10.30;2.50;;;;;;;;;;4970248;28;20027;-72
2022/04/13 01:54:22;;;;;;;14.95;2.40;;;;;;;;;;4973755;28;20037;-72
2022/04/13 01:56:48;;;;;;;11.75;2.40;;;;;;;;;;4970336;28;20599;-72
2022/04/13 01:59:14;;;;;;;10.57;2.63;;;;;;;;;;4970076;28;20031;-72
2022/04/13 02:01:43;;;;;;;13.93;2.40;;;;;;;;;;4970188;28;20033;-72
2022/04/13 02:04:19;;;;;;;10.68;2.00;;;;;;;;;;4970241;28;20038;-72
2022/04/13 02:06:46;;;;;;;11.35;2.10;;;;;;;;;;4971216;28;20093;-72
2022/04/13 02:09:12;;;;;;;11.98;2.40;;;;;;;;;;4973242;28;20430;-72
2022/04/13 02:11:38;;;;;;;10.85;1.95;;;;;;;;;;4970280;28;20015;-72
2022/04/13 02:14:05;;;;;;;8.25;2.00;;;;;;;;;;4957123;28;20023;-72
2022/04/13 02:16:31;;;;;;;10.40;2.10;;;;;;;;;;4969850;28;20019;-72
2022/04/13 02:18:58;;;;;;;12.70;2.47;;;;;;;;;;4969691;28;20492;-72
2022/04/13 02:21:24;;;;;;;13.45;2.55;;;;;;;;;;4973892;28;20026;-72
2022/04/13 02:23:50;;;;;;;15.82;2.67;;;;;;;;;;4970590;28;20037;-72
2022/04/13 02:26:19;;;;;;;8.50;2.10;;;;;;;;;;4956510;28;20034;-72
2022/04/13 02:28:46;;;;;;;9.48;2.30;;;;;;;;;;4969400;28;20035;-72
2022/04/13 02:31:12;;;;;;;6.18;1.98;;;;;;;;;;4969596;28;20025;-72
2022/04/13 02:33:39;;;;;;;14.05;2.78;;;;;;;;;;4971670;28;20018;-72
2022/04/13 02:36:08;;;;;;;11.73;2.25;;;;;;;;;;4972823;28;20031;-72
2022/04/13 02:38:34;;;;;;;8.95;1.90;;;;;;;;;;4974272;28;20486;-72
2022/04/13 02:41:01;;;;;;;9.30;2.15;;;;;;;;;;4972053;28;20035;-72
2022/04/13 02:43:28;;;;;;;14.43;1.98;;;;;;;;;;4969423;28;20395;-72
2022/04/13 02:45:54;;;;;;;15.65;2.20;;;;;;;;;;4969333;28;20492;-72
2022/04/13 02:48:21;;;;;;;11.73;2.28;;;;;;;;;;4958430;28;20031;-72
2022/04/13 02:50:48;;;;;;;11.70;2.47;;;;;;;;;;4969861;28;20023;-72
2022/04/13 02:53:15;;;;;;;7.65;1.77;;;;;;;;;;4969357;28;20035;-72
2022/04/13 02:55:42;;;;;;;9.63;2.15;;;;;;;;;;4968792;28;20023;-72
2022/04/13 02:58:08;;;;;;;12.13;2.20;;;;;;;;;;4969025;28;20027;-72
2022/04/13 03:00:35;;;;;;;6.75;1.90;;;;;;;;;;4971548;28;20488;-72
2022/04/13 03:03:02;;;;;;;9.45;2.30;;;;;;;;;;4971010;28;20042;-72
2022/04/13 03:05:29;;;;;;;7.10;1.70;;;;;;;;;;4969792;28;20015;-72
2022/04/13 03:07:56;;;;;;;8.85;2.13;;;;;;;;;;4967975;28;20372;-72
2022/04/13 03:10:22;;;;;;;8.27;2.00;;;;;;;;;;4969184;28;20023;-72
2022/04/13 03:12:49;;;;;;;7.68;1.80;;;;;;;;;;4969363;28;20031;-72
2022/04/13 03:15:15;;;;;;;12.95;1.90;;;;;;;;;;4972631;28;20404;-72
2022/04/13 03:17:42;;;;;;;13.38;1.95;;;;;;;;;;4969472;28;20027;-72
2022/04/13 03:20:08;;;;;;;6.90;1.63;;;;;;;;;;4955676;28;20042;-72
2022/04/13 03:22:35;;;;;;;15.98;1.90;;;;;;;;;;4955184;28;20419;-72
2022/04/13 03:25:01;;;;;;;10.95;2.00;;;;;;;;;;4968696;28;20041;-72
2022/04/13 03:27:27;;;;;;;9.38;2.00;;;;;;;;;;4972021;28;20399;-72
2022/04/13 03:29:54;;;;;;;7.93;1.73;;;;;;;;;;4955872;28;20039;-72
2022/04/13 03:32:20;;;;;;;6.15;1.58;;;;;;;;;;4958527;28;20033;-72
2022/04/13 03:34:47;;;;;;;9.02;1.83;;;;;;;;;;4968420;28;20085;-72
2022/04/13 03:37:13;;;;;;;7.10;1.40;;;;;;;;;;4968229;28;20027;-72
2022/04/13 03:39:39;;;;;;;9.13;2.33;;;;;;;;;;4970548;28;20041;-72
2022/04/13 03:42:06;;;;;;;9.98;1.75;;;;;;;;;;4971052;28;20373;-72
2022/04/13 03:44:32;;;;;;;8.98;2.03;;;;;;;;;;4957788;28;20027;-72
2022/04/13 03:46:58;;;;;;;7.53;1.38;;;;;;;;;;4968493;28;20034;-72
2022/04/13 03:49:25;;;;;;;5.53;1.40;;;;;;;;;;4968592;28;20025;-72
2022/04/13 03:51:51;;;;;;;10.70;2.00;;;;;;;;;;4968556;28;20078;-72
2022/04/13 03:54:17;;;;;;;7.45;1.60;;;;;;;;;;4972527;28;20160;-72
2022/04/13 03:56:45;;;;;;;5.72;1.65;;;;;;;;;;4968651;28;20023;-72
2022/04/13 03:59:11;;;;;;;8.25;1.90;;;;;;;;;;4968165;28;20514;-72
2022/04/13 04:01:38;;;;;;;10.88;1.95;;;;;;;;;;4968273;28;20033;-72
2022/04/13 04:04:05;;;;;;;9.60;1.95;;;;;;;;;;4968276;28;20019;-72
2022/04/13 04:06:31;;;;;;;7.15;1.90;;;;;;;;;;4970911;28;20049;-72
2022/04/13 04:08:57;;;;;;;6.20;1.50;;;;;;;;;;4970220;28;20030;-72
2022/04/13 04:11:24;;;;;;;7.45;1.92;;;;;;;;;;4968511;28;20032;-72
2022/04/13 04:13:50;;;;;;;10.00;1.30;;;;;;;;;;4968119;28;20034;-72
2022/04/13 04:16:16;;;;;;;6.80;1.35;;;;;;;;;;4968104;28;20514;-72
2022/04/13 04:18:44;;;;;;;10.13;1.70;;;;;;;;;;4969684;28;20029;-72
2022/04/13 04:21:10;;;;;;;8.85;1.85;;;;;;;;;;4974666;28;20037;-72
2022/04/13 04:23:37;;;;;;;13.80;1.70;;;;;;;;;;4972565;28;20507;-72
2022/04/13 04:26:03;;;;;;;15.30;1.83;;;;;;;;;;4971861;28;20488;-72
2022/04/13 04:28:29;;;;;;;10.02;1.70;;;;;;;;;;4971602;28;20042;-72
2022/04/13 04:30:56;;;;;;;11.98;2.13;;;;;;;;;;4971821;28;20396;-72
2022/04/13 04:33:23;;;;;;;7.50;1.20;;;;;;;;;;4976161;28;20026;-72
2022/04/13 04:35:50;;;;;;;9.30;1.70;;;;;;;;;;4972334;28;20424;-73
2022/04/13 04:38:16;;;;;;;10.63;2.17;;;;;;;;;;4958940;28;20097;-72
2022/04/13 04:40:43;;;;;;;6.93;1.63;;;;;;;;;;4971453;28;20045;-72
2022/04/13 04:43:09;;;;;;;10.13;1.88;;;;;;;;;;4971743;28;20023;-72
2022/04/13 04:45:36;;;;;;;6.70;2.50;;;;;;;;;;4974380;28;20026;-72
2022/04/13 04:48:05;;;;;;;8.38;1.60;;;;;;;;;;4973791;28;20479;-72
2022/04/13 04:50:32;;;;;;;10.02;2.08;;;;;;;;;;4974045;28;20038;-72
2022/04/13 04:52:58;;;;;;;7.65;1.55;;;;;;;;;;4971272;28;20026;-72
2022/04/13 04:55:25;;;;;;;6.45;1.60;;;;;;;;;;4971571;28;20041;-72
2022/04/13 04:57:51;;;;;;;12.80;1.90;;;;;;;;;;4971666;28;20023;-72
2022/04/13 05:00:19;;;;;;;7.93;1.77;;;;;;;;;;4975432;28;20041;-72
2022/04/13 05:02:49;;;;;;;8.82;2.10;;;;;;;;;;4972014;28;20027;-72
2022/04/13 05:05:16;;;;;;;10.65;2.22;;;;;;;;;;4970978;28;20057;-72
2022/04/13 05:07:42;;;;;;;9.02;1.50;;;;;;;;;;4971547;28;20027;-72
2022/04/13 05:10:09;;;;;;;10.77;1.50;;;;;;;;;;4970957;28;20027;-72
2022/04/13 05:13:02;;;;;;;12.63;1.65;;;;;;;;;;4973561;28;20015;-72
2022/04/13 05:15:29;;;;;;;7.45;1.42;;;;;;;;;;4957743;28;20072;-72
2022/04/13 05:17:55;;;;;;;6.28;1.67;;;;;;;;;;4972211;28;20387;-72
2022/04/13 05:20:21;;;;;;;9.00;1.60;;;;;;;;;;4970980;28;20049;-72
2022/04/13 05:22:48;;;;;;;9.95;1.90;;;;;;;;;;4970668;28;20391;-72
2022/04/13 05:25:15;;;;;;;12.48;2.03;;;;;;;;;;4971148;28;20038;-72
2022/04/13 05:27:42;;;;;;;6.57;1.63;;;;;;;;;;4972447;28;20451;-72
2022/04/13 05:30:09;;;;;;;11.10;1.77;;;;;;;;;;4972992;28;20027;-72
2022/04/13 05:32:47;;;;;;;11.77;1.70;;;;;;;;;;4971197;28;20027;-72
2022/04/13 05:35:14;;;;;;;10.68;2.00;;;;;;;;;;4970644;28;20027;-72
2022/04/13 05:37:40;;;;;;;9.18;2.08;;;;;;;;;;4970602;28;20085;-72
2022/04/13 05:40:07;;;;;;;9.27;2.08;;;;;;;;;;4970565;28;20047;-72
2022/04/13 05:42:33;;;;;;;10.43;1.70;;;;;;;;;;4973325;28;20031;-72
2022/04/13 05:44:59;;;;;;;10.18;1.70;;;;;;;;;;4972286;28;20073;-72
2022/04/13 05:47:26;;;;;;;8.93;1.75;;;;;;;;;;4970392;28;20033;-72
2022/04/13 05:49:52;;;;;;;8.10;1.67;;;;;;;;;;4970290;28;20030;-72
2022/04/13 05:52:19;;;;;;;7.88;1.63;;;;;;;;;;4970488;28;20045;-72
2022/04/13 05:54:45;;;;;;;6.88;1.92;;;;;;;;;;4971585;28;20484;-72
2022/04/13 05:57:12;;;;;;;6.60;1.42;;;;;;;;;;4973482;28;20042;-72
2022/04/13 05:59:39;;;;;;;11.07;1.90;;;;;;;;;;4970874;28;20031;-72
2022/04/13 06:02:05;;;;;;;9.80;2.60;;;;;;;;;;4969648;28;20030;-72
2022/04/13 06:04:34;;;;;;;14.23;2.70;;;;;;;;;;4970445;28;20023;-73
2022/04/13 06:07:01;;;;;;;7.70;2.60;;;;;;;;;;4951709;28;20034;-72
2022/04/13 06:09:27;;;;;;;11.55;2.47;;;;;;;;;;4972714;28;20045;-72
2022/04/13 06:11:53;;;;;;;14.50;2.55;;;;;;;;;;4973333;28;20035;-72
2022/04/13 06:14:20;;;;;;;21.35;5.10;;;;;;;;;;4970113;28;20392;-72
2022/04/13 06:16:46;;;;;;;15.82;4.80;;;;;;;;;;4969454;28;20030;-72
2022/04/13 06:19:13;;;;;;;8.95;3.03;;;;;;;;;;4972315;28;20030;-72
2022/04/13 06:21:39;;;;;;;9.32;2.70;;;;;;;;;;4969127;28;20031;-72
2022/04/13 06:24:06;;;;;;;11.55;3.42;;;;;;;;;;4972820;28;20031;-72
2022/04/13 06:26:32;;;;;;;13.77;3.75;;;;;;;;;;4972520;28;20147;-72
2022/04/13 06:28:59;;;;;;;16.25;4.78;;;;;;;;;;4968976;28;20508;-72
2022/04/13 06:31:25;;;;;;;13.68;3.72;;;;;;;;;;4968513;28;20031;-72
2022/04/13 06:33:52;;;;;;;16.00;4.05;;;;;;;;;;4972399;28;20034;-72
2022/04/13 06:36:18;;;;;;;9.48;2.97;;;;;;;;;;4973261;28;20411;-72
2022/04/13 06:38:45;;;;;;;14.50;3.10;;;;;;;;;;4969586;28;20025;-72
2022/04/13 06:41:11;;;;;;;10.68;2.78;;;;;;;;;;4967350;28;20039;-72
2022/04/13 06:43:38;;;;;;;11.68;2.75;;;;;;;;;;4968629;28;20022;-72
2022/04/13 06:46:05;;;;;;;11.70;3.67;;;;;;;;;;4968696;28;20526;-72
2022/04/13 06:48:31;;;;;;;10.85;3.35;;;;;;;;;;4972135;28;20025;-72
2022/04/13 06:50:57;;;;;;;11.45;3.17;;;;;;;;;;4973642;28;20031;-72
2022/04/13 06:53:24;;;;;;;16.40;5.15;;;;;;;;;;4971934;28;20031;-72
2022/04/13 06:55:50;;;;;;;12.88;3.88;;;;;;;;;;4968780;28;20625;-72
2022/04/13 06:58:18;;;;;;;16.85;6.47;;;;;;;;;;4968831;28;20030;-72
2022/04/13 07:00:44;;;;;;;27.65;13.60;;;;;;;;;;4969686;28;20101;-72
2022/04/13 07:03:11;;;;;;;19.52;9.45;;;;;;;;;;4970663;28;20407;-73
2022/04/13 07:05:37;;;;;;;11.70;4.53;;;;;;;;;;4969032;28;20041;-72
2022/04/13 07:08:04;;;;;;;25.92;4.47;;;;;;;;;;4968334;28;20027;-72
2022/04/13 07:10:31;;;;;;;20.50;5.20;;;;;;;;;;4964712;28;20081;-72
2022/04/13 07:12:58;;;;;;;24.83;6.93;;;;;;;;;;4969492;28;20023;-72
2022/04/13 07:15:25;;;;;;;25.15;7.93;;;;;;;;;;4968563;28;20069;-72
2022/04/13 07:17:51;;;;;;;22.15;7.82;;;;;;;;;;4968400;28;20027;-72
2022/04/13 07:20:17;;;;;;;18.25;4.70;;;;;;;;;;4962799;28;20041;-73
2022/04/13 07:22:45;;;;;;;15.95;4.85;;;;;;;;;;4962194;28;20476;-73
2022/04/13 07:25:11;;;;;;;13.30;4.45;;;;;;;;;;4965632;28;20030;-72
2022/04/13 07:27:38;;;;;;;14.68;4.22;;;;;;;;;;4968081;28;20055;-72
2022/04/13 07:30:05;;;;;;;15.68;4.53;;;;;;;;;;4970020;28;20057;-73
2022/04/13 07:32:31;;;;;;;11.60;3.83;;;;;;;;;;4966770;28;20039;-72
2022/04/13 07:35:02;;;;;;;14.15;4.38;;;;;;;;;;4959213;28;20049;-72
2022/04/13 07:37:29;;;;;;;14.70;4.75;;;;;;;;;;4964774;28;20038;-73
2022/04/13 07:39:56;;;;;;;12.73;4.00;;;;;;;;;;4966060;28;20035;-72
2022/04/13 07:42:22;;;;;;;10.25;3.10;;;;;;;;;;4966100;28;20031;-73
2022/04/13 07:44:49;;;;;;;9.68;2.70;;;;;;;;;;4963020;28;20052;-72
2022/04/13 07:47:15;;;;;;;17.40;3.33;;;;;;;;;;4949958;28;20027;-72
2022/04/13 07:49:42;;;;;;;14.02;3.35;;;;;;;;;;4966135;28;20031;-73
2022/04/13 07:52:09;;;;;;;15.00;3.00;;;;;;;;;;4969477;28;20027;-72
2022/04/13 07:54:35;;;;;;;15.52;2.95;;;;;;;;;;4970034;28;20034;-73
2022/04/13 07:57:02;;;;;;;14.70;3.80;;;;;;;;;;4967993;28;20037;-73
2022/04/13 07:59:28;;;;;;;12.20;3.88;;;;;;;;;;4964292;28;20500;-73
2022/04/13 08:01:55;;;;;;;12.00;3.42;;;;;;;;;;4962823;28;20035;-72
2022/04/13 08:04:22;;;;;;;12.40;3.60;;;;;;;;;;4960460;28;20487;-72
2022/04/13 08:06:48;;;;;;;14.10;3.28;;;;;;;;;;4967211;28;20030;-72
2022/04/13 08:09:15;;;;;;;17.38;3.70;;;;;;;;;;4970701;28;20031;-72
2022/04/13 08:11:41;;;;;;;14.15;3.45;;;;;;;;;;4962244;28;20035;-72
2022/04/13 08:14:07;;;;;;;14.68;2.60;;;;;;;;;;4964450;28;20077;-73
2022/04/13 08:16:34;;;;;;;8.30;2.25;;;;;;;;;;4962604;28;20523;-72
2022/04/13 08:19:00;;;;;;;9.95;3.08;;;;;;;;;;4961367;28;20029;-73
2022/04/13 08:21:26;;;;;;;13.77;2.65;;;;;;;;;;4949784;28;20399;-73
2022/04/13 08:23:53;;;;;;;12.55;2.05;;;;;;;;;;4971669;28;20019;-73
2022/04/13 08:26:19;;;;;;;14.05;2.42;;;;;;;;;;4962208;28;20414;-73
2022/04/13 08:28:45;;;;;;;9.07;2.33;;;;;;;;;;4966771;28;20045;-73
2022/04/13 08:31:12;;;;;;;8.77;2.65;;;;;;;;;;4966834;28;20506;-73
2022/04/13 08:33:39;;;;;;;12.68;2.10;;;;;;;;;;4958130;28;20767;-73
2022/04/13 08:36:05;;;;;;;8.68;2.03;;;;;;;;;;4955529;28;20095;-73
2022/04/13 08:38:32;;;;;;;10.38;2.00;;;;;;;;;;4971330;28;20077;-73
2022/04/13 08:40:59;;;;;;;9.60;2.10;;;;;;;;;;4967031;28;20507;-73
2022/04/13 08:43:34;;;;;;;11.23;2.17;;;;;;;;;;4970812;28;20037;-73
2022/04/13 08:46:05;;;;;;;12.63;2.10;;;;;;;;;;4966632;28;20034;-73
2022/04/13 08:48:32;;;;;;;8.98;1.98;;;;;;;;;;4969824;28;20027;-73
2022/04/13 08:50:59;;;;;;;7.93;2.17;;;;;;;;;;4968406;28;20392;-73
2022/04/13 08:53:30;;;;;;;12.77;2.90;;;;;;;;;;4970390;28;20026;-73
2022/04/13 08:55:57;;;;;;;12.20;3.65;;;;;;;;;;4969708;28;20031;-73
2022/04/13 08:58:35;;;;;;;13.13;3.17;;;;;;;;;;4953691;28;20041;-73
2022/04/13 09:01:03;;;;;;;12.82;4.10;;;;;;;;;;4966822;28;20526;-73
2022/04/13 09:03:46;;;;;;;6.78;1.77;;;;;;;;;;4970611;28;20030;-73
2022/04/13 09:06:14;;;;;;;8.32;2.08;;;;;;;;;;4973510;28;20985;-73
2022/04/13 09:08:40;;;;;;;8.90;2.30;;;;;;;;;;4970712;28;20015;-73
2022/04/13 09:11:07;;;;;;;11.35;2.15;;;;;;;;;;4969507;28;20033;-72
2022/04/13 09:13:33;;;;;;;10.55;1.95;;;;;;;;;;4973648;28;20027;-73
2022/04/13 09:16:00;;;;;;;8.18;2.10;;;;;;;;;;4954572;28;20066;-72
2022/04/13 09:18:27;;;;;;;11.55;2.63;;;;;;;;;;4974168;28;20022;-73
2022/04/13 09:20:53;;;;;;;5.88;1.80;;;;;;;;;;4972084;28;20045;-73
2022/04/13 09:23:23;;;;;;;8.45;1.88;;;;;;;;;;4971986;28;20031;-73
2022/04/13 09:25:54;;;;;;;6.07;1.93;;;;;;;;;;4968834;28;20029;-77
2022/04/13 09:28:21;;;;;;;5.75;1.50;;;;;;;;;;4970665;28;20049;-76
2022/04/13 09:30:47;;;;;;;6.90;1.55;;;;;;;;;;4970098;28;20041;-76
2022/04/13 09:33:14;;;;;;;5.90;1.58;;;;;;;;;;4972663;28;20045;-74
2022/04/13 09:35:40;;;;;;;7.10;1.50;;;;;;;;;;4968443;28;20033;-76
2022/04/13 09:38:07;;;;;;;5.22;1.23;;;;;;;;;;4973552;28;20031;-76
2022/04/13 09:40:38;;;;;;;6.90;1.65;;;;;;;;;;4969029;28;20047;-76
2022/04/13 09:43:17;;;;;;;7.68;1.70;;;;;;;;;;4971202;28;20023;-75
2022/04/13 09:45:44;;;;;;;5.38;1.30;;;;;;;;;;4971079;28;20030;-76
2022/04/13 09:48:12;;;;;;;10.07;1.23;;;;;;;;;;4972632;28;20022;-76
2022/04/13 09:50:39;;;;;;;2.88;1.08;;;;;;;;;;4969204;28;20022;-76
2022/04/13 09:53:06;;;;;;;7.57;1.55;;;;;;;;;;4955701;28;20051;-76
2022/04/13 09:55:39;;;;;;;7.35;1.55;;;;;;;;;;4962622;28;20038;-77
2022/04/13 09:58:06;;;;;;;7.63;1.30;;;;;;;;;;4970340;28;20027;-76
2022/04/13 10:00:33;;;;;;;8.18;1.48;;;;;;;;;;4972470;28;20096;-76
2022/04/13 10:03:12;;;;;;;7.18;1.92;;;;;;;;;;4969083;28;20035;-76
2022/04/13 10:05:42;;;;;;;5.20;1.30;;;;;;;;;;4973558;28;20033;-76
2022/04/13 10:08:09;;;;;;;5.43;1.42;;;;;;;;;;4968234;28;20023;-76
2022/04/13 10:10:36;;;;;;;6.72;1.42;;;;;;;;;;4968326;28;20027;-76
2022/04/13 10:13:02;;;;;;;5.82;1.42;;;;;;;;;;4968590;28;20031;-76
2022/04/13 10:15:29;;;;;;;5.03;1.30;;;;;;;;;;4971731;28;20375;-76
2022/04/13 10:17:59;;;;;;;5.18;1.25;;;;;;;;;;4969671;28;20019;-76
2022/04/13 10:20:29;;;;;;;5.45;1.40;;;;;;;;;;4973317;28;20407;-77
2022/04/13 10:22:59;;;;;;;4.20;1.00;;;;;;;;;;4968269;28;20034;-76
2022/04/13 10:25:27;;;;;;;7.10;1.13;;;;;;;;;;4968826;28;20404;-76
2022/04/13 10:28:00;;;;;;;6.18;1.30;;;;;;;;;;4968508;28;20051;-76
2022/04/13 10:30:26;;;;;;;4.97;1.25;;;;;;;;;;4970023;28;20035;-76
2022/04/13 10:33:00;;;;;;;7.53;1.50;;;;;;;;;;4970023;28;20031;-76
2022/04/13 10:35:27;;;;;;;2.63;1.20;;;;;;;;;;4972090;28;20031;-76
2022/04/13 10:37:55;;;;;;;6.85;1.20;;;;;;;;;;4968651;28;20042;-76
2022/04/13 10:40:25;;;;;;;7.82;1.40;;;;;;;;;;4972216;28;20035;-76
2022/04/13 10:42:53;;;;;;;4.68;1.35;;;;;;;;;;4968632;28;20054;-75
2022/04/13 10:45:19;;;;;;;6.53;1.30;;;;;;;;;;4972177;28;20495;-76
2022/04/13 10:47:59;;;;;;;9.02;1.60;;;;;;;;;;4968207;28;20376;-76
2022/04/13 10:50:43;;;;;;;9.18;1.40;;;;;;;;;;4968762;28;20026;-77
2022/04/13 10:53:10;;;;;;;4.43;1.15;;;;;;;;;;4967788;28;20035;-76
2022/04/13 10:55:36;;;;;;;10.57;1.58;;;;;;;;;;4971966;28;20029;-77
2022/04/13 10:58:03;;;;;;;7.63;1.83;;;;;;;;;;4970967;28;20797;-77
2022/04/13 11:00:34;;;;;;;9.48;1.90;;;;;;;;;;4971846;28;20053;-76
2022/04/13 11:03:00;;;;;;;;;;;;;;;;;;4970911;28;20023;-76
2022/04/13 11:05:27;;;;;;;4.68;1.13;;;;;;;;;;4972272;28;19940;-76
2022/04/13 11:08:01;;;;;;;5.88;1.15;;;;;;;;;;4968283;28;20475;-76
2022/04/13 11:10:30;;;;;;;8.02;1.70;;;;;;;;;;4967325;28;20049;-77
2022/04/13 11:12:58;;;;;;;7.18;1.60;;;;;;;;;;4969821;28;20035;-77
2022/04/13 11:15:43;;;;;;;7.50;1.58;;;;;;;;;;4972081;28;20023;-76
2022/04/13 11:18:18;;;;;;;4.15;1.30;;;;;;;;;;4970589;28;20035;-76
2022/04/13 11:21:00;;;;;;;5.90;1.20;;;;;;;;;;4970679;28;20496;-76
2022/04/13 11:23:47;;;;;;;6.93;1.50;;;;;;;;;;4968068;28;20035;-76
2022/04/13 11:26:13;;;;;;;9.35;1.80;;;;;;;;;;4968191;28;20026;-77
2022/04/13 11:28:40;;;;;;;4.60;1.45;;;;;;;;;;4967401;28;20085;-76
2022/04/13 11:31:10;;;;;;;6.63;1.60;;;;;;;;;;4968159;28;20037;-77
2022/04/13 11:33:53;;;;;;;10.50;1.80;;;;;;;;;;4970696;28;20476;-77
2022/04/13 11:36:20;;;;;;;9.20;1.60;;;;;;;;;;4971384;28;20029;-77
2022/04/13 11:38:50;;;;;;;6.43;1.35;;;;;;;;;;4968345;28;20687;-77
2022/04/13 11:41:19;;;;;;;5.78;1.60;;;;;;;;;;4967220;28;20043;-77
2022/04/13 11:43:46;;;;;;;6.18;1.65;;;;;;;;;;4967417;28;20041;-77
2022/04/13 11:46:32;;;;;;;9.60;1.90;;;;;;;;;;4967811;28;20057;-77
2022/04/13 11:48:58;;;;;;;8.85;1.85;;;;;;;;;;4967913;28;20020;-77
2022/04/13 11:51:30;;;;;;;6.38;1.90;;;;;;;;;;4971710;28;20018;-77
2022/04/13 11:54:05;;;;;;;9.25;1.75;;;;;;;;;;4968976;28;20031;-77
2022/04/13 11:56:32;;;;;;;6.68;2.00;;;;;;;;;;4968238;28;20027;-76
2022/04/13 11:58:59;;;;;;;9.50;1.88;;;;;;;;;;4965482;28;20019;-77
2022/04/13 12:01:26;;;;;;;10.35;2.10;;;;;;;;;;4969935;28;20035;-77
2022/04/13 12:03:52;;;;;;;8.05;1.80;;;;;;;;;;4955995;28;20031;-77
2022/04/13 12:06:21;;;;;;;9.07;2.05;;;;;;;;;;4961559;28;20014;-76
2022/04/13 12:08:50;;;;;;;8.57;1.83;;;;;;;;;;4966372;28;20365;-77
2022/04/13 12:11:18;;;;;;;9.35;1.85;;;;;;;;;;4965954;28;20037;-77
2022/04/13 12:13:51;;;;;;;7.80;1.88;;;;;;;;;;4966861;28;20053;-76
2022/04/13 12:16:19;;;;;;;6.93;1.70;;;;;;;;;;4949115;28;20034;-77
2022/04/13 12:18:46;;;;;;;11.05;1.80;;;;;;;;;;4950471;28;20035;-77
2022/04/13 12:21:16;;;;;;;5.85;1.83;;;;;;;;;;4968862;28;20438;-77
2022/04/13 12:23:43;;;;;;;9.73;1.87;;;;;;;;;;4966217;28;20034;-77
2022/04/13 12:26:10;;;;;;;5.18;1.60;;;;;;;;;;4966373;28;20805;-77
2022/04/13 12:28:38;;;;;;;5.40;1.85;;;;;;;;;;4966189;28;20039;-76
2022/04/13 12:31:04;;;;;;;11.05;1.92;;;;;;;;;;4966251;28;20035;-77
2022/04/13 12:33:31;;;;;;;5.55;1.88;;;;;;;;;;4969528;28;20015;-77
2022/04/13 12:35:59;;;;;;;5.45;1.40;;;;;;;;;;4967493;28;20038;-77
2022/04/13 12:38:32;;;;;;;9.27;1.88;;;;;;;;;;4966489;28;20023;-77
2022/04/13 12:41:06;;;;;;;8.23;1.80;;;;;;;;;;4968135;28;20031;-76
2022/04/13 12:43:33;;;;;;;5.95;1.70;;;;;;;;;;4969691;28;20030;-77
2022/04/13 12:46:07;;;;;;;5.10;1.77;;;;;;;;;;4969732;28;20027;-77
2022/04/13 12:48:34;;;;;;;8.60;2.15;;;;;;;;;;4972877;28;20033;-76
2022/04/13 12:51:01;;;;;;;9.23;1.90;;;;;;;;;;4971480;28;20033;-75
2022/04/13 12:53:28;;;;;;;8.02;1.77;;;;;;;;;;4973505;28;20045;-78
2022/04/13 12:55:55;;;;;;;9.07;1.90;;;;;;;;;;4969528;28;20019;-77
2022/04/13 12:58:21;;;;;;;5.85;1.65;;;;;;;;;;4970040;28;20084;-78
2022/04/13 13:00:52;;;;;;;12.55;1.95;;;;;;;;;;4969893;28;20509;-78
2022/04/13 13:03:19;;;;;;;7.75;1.63;;;;;;;;;;4971944;28;20102;-77
2022/04/13 13:05:46;;;;;;;6.72;1.48;;;;;;;;;;4972000;28;20068;-78
2022/04/13 13:08:12;;;;;;;10.93;1.67;;;;;;;;;;4967702;28;20030;-77
2022/04/13 13:10:43;;;;;;;6.90;2.22;;;;;;;;;;4970168;28;20027;-77
2022/04/13 13:13:11;;;;;;;8.23;1.83;;;;;;;;;;4970312;28;20058;-77
2022/04/13 13:15:37;;;;;;;6.78;2.05;;;;;;;;;;4972639;28;20027;-78
2022/04/13 13:18:08;;;;;;;8.13;1.75;;;;;;;;;;4971517;28;20037;-75
2022/04/13 13:20:35;;;;;;;7.80;2.00;;;;;;;;;;4970493;28;20043;-77
2022/04/13 13:23:10;;;;;;;7.03;1.23;;;;;;;;;;4970477;28;20035;-77
2022/04/13 13:25:40;;;;;;;7.40;1.70;;;;;;;;;;4969743;28;20022;-77
2022/04/13 13:28:07;;;;;;;5.65;1.70;;;;;;;;;;4948075;29;20040;-77
2022/04/13 13:30:41;;;;;;;10.73;1.80;;;;;;;;;;4950547;28;20043;-78
2022/04/13 13:33:13;;;;;;;5.78;1.50;;;;;;;;;;4950212;29;20033;-77
2022/04/13 13:35:39;;;;;;;5.50;1.80;;;;;;;;;;4949226;29;20035;-76
2022/04/13 13:38:23;;;;;;;8.68;2.25;;;;;;;;;;4949019;29;20026;-77
2022/04/13 13:40:49;;;;;;;12.88;1.98;;;;;;;;;;4952579;29;20415;-77
2022/04/13 13:43:16;;;;;;;9.18;1.90;;;;;;;;;;4948192;29;20027;-77
2022/04/13 13:45:43;;;;;;;7.05;1.70;;;;;;;;;;4953718;29;20023;-77
2022/04/13 13:48:10;;;;;;;5.28;1.42;;;;;;;;;;4952931;29;20082;-77
2022/04/13 13:50:38;;;;;;;7.43;1.50;;;;;;;;;;4944678;28;20032;-78
2022/04/13 13:53:05;;;;;;;13.27;2.05;;;;;;;;;;4953357;28;20436;-77
2022/04/13 13:55:34;;;;;;;6.13;2.00;;;;;;;;;;4945760;29;20028;-77
2022/04/13 13:58:00;;;;;;;10.20;1.65;;;;;;;;;;4953581;29;20030;-78
2022/04/13 14:00:28;;;;;;;5.50;1.50;;;;;;;;;;4949911;29;20121;-78
2022/04/13 14:02:55;;;;;;;7.45;1.60;;;;;;;;;;4950551;29;20035;-78
2022/04/13 14:05:22;;;;;;;10.95;1.65;;;;;;;;;;4950405;29;20427;-78
2022/04/13 14:07:49;;;;;;;9.25;1.90;;;;;;;;;;4952838;28;20596;-78
2022/04/13 14:10:16;;;;;;;7.57;2.03;;;;;;;;;;4952891;28;20035;-77
2022/04/13 14:12:42;;;;;;;4.18;1.95;;;;;;;;;;4951109;28;20083;-77
2022/04/13 14:15:11;;;;;;;9.93;3.05;;;;;;;;;;4949056;29;20039;-78
2022/04/13 14:17:38;;;;;;;9.50;1.75;;;;;;;;;;4953170;29;20038;-77
2022/04/13 14:20:05;;;;;;;5.40;1.60;;;;;;;;;;4944653;29;20057;-77
2022/04/13 14:22:32;;;;;;;11.57;5.35;;;;;;;;;;4952957;29;20031;-77
2022/04/13 14:24:58;;;;;;;6.38;1.83;;;;;;;;;;4940149;29;20027;-77
2022/04/13 14:27:25;;;;;;;12.77;1.70;;;;;;;;;;4938757;28;20436;-77
2022/04/13 14:29:51;;;;;;;9.05;2.35;;;;;;;;;;4968314;28;20403;-76
2022/04/13 14:32:17;;;;;;;11.40;1.95;;;;;;;;;;4968970;28;20046;-77
2022/04/13 14:34:44;;;;;;;10.90;2.20;;;;;;;;;;4968616;28;20041;-78
2022/04/13 14:37:10;;;;;;;9.48;1.60;;;;;;;;;;4968547;28;20023;-77
2022/04/13 14:39:38;;;;;;;7.63;1.42;;;;;;;;;;4970076;28;20034;-76
2022/04/13 14:42:04;;;;;;;10.23;1.88;;;;;;;;;;4971678;28;20071;-77